Time;durP1;ratioP1;P1;durP2;ratioP2;P2;SDS_P1;SDS_P2;PMS_P1;PMS_P2;Temp;Humidity;BMP_temperature;BMP_pressure;BME280_temperature;BME280_humidity;BME280_pressure;Samples;Min_cycle;Max_cycle;Signal;HPM_P1;HPM_P2
2022/09/15 00:00:53;;;;;;;13.00;6.97;;;;;;;15.51;100.00;99292.29;1447866;90;21412;-79
2022/09/15 00:03:20;;;;;;;8.67;7.43;;;;;;;15.50;100.00;99277.30;1463428;89;21479;-79
2022/09/15 00:05:47;;;;;;;8.57;7.67;;;;;;;15.48;100.00;99270.86;1454379;89;22544;-79
2022/09/15 00:08:14;;;;;;;9.43;8.47;;;;;;;15.50;100.00;99274.63;1453213;89;21656;-79
2022/09/15 00:10:58;;;;;;;9.47;8.27;;;;;;;15.51;100.00;99261.63;1461926;88;21309;-79
2022/09/15 00:13:25;;;;;;;8.47;7.57;;;;;;;15.53;100.00;99254.22;1463798;87;22506;-79
2022/09/15 00:15:51;;;;;;;9.77;8.40;;;;;;;15.55;100.00;99237.50;1470453;88;21589;-77
2022/09/15 00:18:17;;;;;;;8.20;7.07;;;;;;;15.59;100.00;99237.38;1465148;87;23441;-78
2022/09/15 00:20:45;;;;;;;8.27;7.50;;;;;;;15.59;100.00;99233.38;1471610;88;21397;-78
2022/09/15 00:23:14;;;;;;;8.73;7.07;;;;;;;15.56;100.00;99227.13;1467087;88;21581;-78
2022/09/15 00:25:50;;;;;;;10.70;8.40;;;;;;;15.56;100.00;99229.80;1470626;87;21449;-79
2022/09/15 00:28:20;;;;;;;12.50;7.47;;;;;;;15.55;100.00;99236.17;1463081;88;21398;-78
2022/09/15 00:30:51;;;;;;;8.18;7.12;;;;;;;15.59;100.00;99241.38;1447403;88;23507;-78
2022/09/15 00:33:19;;;;;;;10.78;8.10;;;;;;;15.62;100.00;99240.14;1458324;88;21405;-78
2022/09/15 00:35:49;;;;;;;10.57;8.00;;;;;;;15.61;100.00;99238.00;1463404;88;21832;-78
2022/09/15 00:38:17;;;;;;;9.37;8.37;;;;;;;15.53;100.00;99237.70;1460442;88;22307;-78
2022/09/15 00:40:50;;;;;;;8.47;7.57;;;;;;;15.50;100.00;99234.64;1465264;88;22409;-78
2022/09/15 00:43:19;;;;;;;10.30;9.10;;;;;;;15.50;100.00;99247.97;1421401;91;22347;-78
2022/09/15 00:45:47;;;;;;;10.83;7.63;;;;;;;15.49;100.00;99241.01;1413311;91;21438;-78
2022/09/15 00:48:20;;;;;;;13.13;7.90;;;;;;;15.45;100.00;99241.10;1409066;91;21571;-78
2022/09/15 00:50:52;;;;;;;9.20;7.30;;;;;;;15.42;100.00;99241.52;1450849;89;21405;-79
2022/09/15 00:53:18;;;;;;;11.50;7.50;;;;;;;15.44;100.00;99234.14;1472566;88;22578;-78
2022/09/15 00:55:48;;;;;;;10.27;7.70;;;;;;;15.45;100.00;99231.77;1470089;87;21382;-78
2022/09/15 00:58:31;;;;;;;9.25;8.00;;;;;;;15.47;100.00;99227.05;1468140;88;22159;-79
2022/09/15 01:01:00;;;;;;;11.00;8.30;;;;;;;15.50;100.00;99234.64;1460039;88;21433;-78
2022/09/15 01:03:30;;;;;;;11.40;8.20;;;;;;;15.52;100.00;99228.07;1457346;88;21520;-78
2022/09/15 01:06:05;;;;;;;8.88;7.67;;;;;;;15.56;100.00;99225.80;1471186;88;21578;-79
2022/09/15 01:08:42;;;;;;;9.00;8.07;;;;;;;15.60;100.00;99231.04;1473754;88;21411;-78
2022/09/15 01:11:08;;;;;;;7.73;6.50;;;;;;;15.61;100.00;99222.52;1464752;87;22395;-78
2022/09/15 01:13:34;;;;;;;12.37;7.77;;;;;;;15.64;100.00;99214.09;1465505;88;21427;-79
2022/09/15 01:16:30;;;;;;;12.57;8.73;;;;;;;15.66;100.00;99212.05;1459456;87;21427;-78
2022/09/15 01:19:22;;;;;;;11.07;7.43;;;;;;;15.65;100.00;99211.23;1451970;88;21629;-80
2022/09/15 01:21:56;;;;;;;8.07;6.90;;;;;;;15.66;100.00;99207.53;1470539;88;21426;-79
2022/09/15 01:24:54;;;;;;;9.40;7.77;;;;;;;15.70;100.00;99205.28;1466862;87;22499;-78
2022/09/15 01:27:50;;;;;;;10.73;8.53;;;;;;;15.71;100.00;99202.42;1456334;88;22315;-80
2022/09/15 01:30:21;;;;;;;11.73;7.97;;;;;;;15.71;100.00;99205.08;1449747;88;21645;-80
2022/09/15 01:33:23;;;;;;;10.28;8.10;;;;;;;15.64;100.00;99198.91;1483826;87;21455;-80
2022/09/15 01:36:07;;;;;;;9.90;8.90;;;;;;;15.57;100.00;99214.13;1448923;90;22427;-80
2022/09/15 01:39:10;;;;;;;11.33;7.13;;;;;;;15.49;100.00;99217.02;1466841;88;22410;-78
2022/09/15 01:41:50;;;;;;;8.83;7.63;;;;;;;15.44;100.00;99208.81;1474858;87;22618;-79
2022/09/15 01:44:30;;;;;;;9.80;7.92;;;;;;;15.42;100.00;99225.52;1469450;87;21596;-79
2022/09/15 01:47:02;;;;;;;11.88;9.00;;;;;;;15.37;100.00;99218.16;1477640;87;21566;-79
2022/09/15 01:49:49;;;;;;;8.53;7.07;;;;;;;15.35;100.00;99214.36;1463361;87;21418;-79
2022/09/15 01:52:19;;;;;;;9.93;7.97;;;;;;;15.32;100.00;99210.78;1470650;87;21375;-79
2022/09/15 01:54:49;;;;;;;12.47;8.05;;;;;;;15.35;100.00;99208.22;1460987;88;21389;-79
2022/09/15 01:57:20;;;;;;;15.05;7.37;;;;;;;15.39;100.00;99200.61;1472266;88;21514;-79
2022/09/15 01:59:53;;;;;;;8.47;7.53;;;;;;;15.41;100.00;99194.57;1496350;87;21456;-79
2022/09/15 02:02:36;;;;;;;9.03;7.07;;;;;;;15.44;100.00;99188.30;1473041;88;22307;-77
2022/09/15 02:05:12;;;;;;;8.70;7.30;;;;;;;15.49;100.00;99182.34;1474038;88;21390;-79
2022/09/15 02:07:50;;;;;;;7.80;7.00;;;;;;;15.55;100.00;99180.98;1485004;87;21448;-79
2022/09/15 02:10:44;;;;;;;10.47;8.57;;;;;;;15.63;100.00;99176.47;1475387;87;21374;-79
2022/09/15 02:13:22;;;;;;;13.50;8.40;;;;;;;15.67;100.00;99165.67;1463287;88;21659;-79
2022/09/15 02:15:56;;;;;;;14.70;8.83;;;;;;;15.67;100.00;99155.81;1461662;89;21471;-78
2022/09/15 02:18:43;;;;;;;10.87;8.57;;;;;;;15.65;100.00;99153.89;1461087;88;21539;-80
2022/09/15 02:21:17;;;;;;;10.83;8.60;;;;;;;15.63;100.00;99147.94;1463284;89;21545;-79
2022/09/15 02:23:53;;;;;;;9.27;8.13;;;;;;;15.63;100.00;99150.61;1462016;89;21507;-79
2022/09/15 02:26:22;;;;;;;8.13;7.33;;;;;;;15.61;100.00;99151.33;1457647;89;21500;-79
2022/09/15 02:28:48;;;;;;;;;;;;;;;15.63;100.00;99134.61;1465691;88;21596;-80
2022/09/15 02:31:17;;;;;;;9.83;8.83;;;;;;;15.65;100.00;99125.89;1468472;89;20283;-80
2022/09/15 02:33:48;;;;;;;11.87;7.83;;;;;;;15.66;100.00;99118.18;1447166;89;21470;-79
2022/09/15 02:36:18;;;;;;;9.53;7.13;;;;;;;15.68;100.00;99104.16;1465797;89;21655;-78
2022/09/15 02:38:50;;;;;;;11.00;6.92;;;;;;;15.71;100.00;99094.91;1485548;88;21589;-78
2022/09/15 02:41:16;;;;;;;9.90;6.70;;;;;;;15.69;100.00;99113.78;1479500;87;21397;-78
2022/09/15 02:43:48;;;;;;;14.07;8.30;;;;;;;15.60;100.00;99113.70;1481208;88;21484;-78
2022/09/15 02:46:19;;;;;;;12.70;7.33;;;;;;;15.64;100.00;99102.08;1476489;88;21308;-78
2022/09/15 02:48:45;;;;;;;8.03;6.93;;;;;;;15.66;100.00;99094.17;1471415;88;21544;-78
2022/09/15 02:51:12;;;;;;;7.23;6.60;;;;;;;15.71;100.00;99086.39;1488649;88;21397;-79
2022/09/15 02:53:38;;;;;;;15.97;7.13;;;;;;;15.77;100.00;99090.05;1468654;87;22388;-79
2022/09/15 02:56:05;;;;;;;7.90;7.07;;;;;;;15.82;100.00;99084.06;1461669;88;22358;-79
2022/09/15 02:58:33;;;;;;;12.23;7.43;;;;;;;15.86;100.00;99073.28;1474082;87;21524;-78
2022/09/15 03:01:07;;;;;;;10.23;7.17;;;;;;;15.87;100.00;99053.56;1477050;88;21360;-77
2022/09/15 03:03:34;;;;;;;7.57;6.60;;;;;;;15.83;100.00;99049.18;1480243;88;23531;-78
2022/09/15 03:06:16;;;;;;;11.00;6.40;;;;;;;15.82;100.00;99040.05;1462518;88;21412;-79
2022/09/15 03:08:49;;;;;;;10.40;7.60;;;;;;;15.75;100.00;99108.92;1473492;88;22261;-78
2022/09/15 03:11:18;;;;;;;10.57;6.53;;;;;;;15.67;100.00;99145.66;1468011;88;21411;-79
2022/09/15 03:13:45;;;;;;;9.83;6.97;;;;;;;15.67;100.00;99155.81;1488338;87;21548;-78
2022/09/15 03:16:14;;;;;;;8.27;7.30;;;;;;;15.61;100.00;99159.84;1474749;87;21648;-80
2022/09/15 03:18:41;;;;;;;9.93;7.30;;;;;;;15.55;100.00;99167.66;1466036;88;21575;-80
2022/09/15 03:21:12;;;;;;;9.03;7.63;;;;;;;15.49;100.00;99171.69;1465699;88;21547;-80
2022/09/15 03:23:39;;;;;;;10.63;6.90;;;;;;;15.49;100.00;99164.50;1478450;88;21559;-80
2022/09/15 03:26:07;;;;;;;8.60;7.33;;;;;;;15.50;100.00;99158.64;1464161;88;21598;-80
2022/09/15 03:28:35;;;;;;;8.30;6.20;;;;;;;15.51;100.00;99162.97;1485267;88;21474;-79
2022/09/15 03:31:02;;;;;;;10.37;7.00;;;;;;;15.50;100.00;99158.12;1478211;88;21566;-79
2022/09/15 03:33:29;;;;;;;12.27;7.23;;;;;;;15.50;100.00;99157.31;1482713;87;21389;-79
2022/09/15 03:35:55;;;;;;;9.77;7.77;;;;;;;15.55;100.00;99152.98;1481335;88;22291;-78
2022/09/15 03:38:22;;;;;;;8.00;7.03;;;;;;;15.55;100.00;99158.32;1481700;87;21374;-79
2022/09/15 03:40:57;;;;;;;7.67;6.83;;;;;;;15.58;100.00;99151.75;1484292;88;21523;-78
2022/09/15 03:43:24;;;;;;;11.60;6.73;;;;;;;15.64;100.00;99140.23;1469705;88;21464;-78
2022/09/15 03:45:50;;;;;;;7.63;6.93;;;;;;;15.70;100.00;99142.08;1478049;88;21345;-77
2022/09/15 03:48:16;;;;;;;10.73;7.37;;;;;;;15.67;100.00;99142.47;1487679;87;21478;-79
2022/09/15 03:50:42;;;;;;;8.33;6.60;;;;;;;15.70;100.00;99141.27;1483765;88;21485;-79
2022/09/15 03:53:08;;;;;;;11.47;7.10;;;;;;;15.74;100.00;99144.64;1467709;87;21604;-80
2022/09/15 03:55:35;;;;;;;10.67;7.07;;;;;;;15.77;100.00;99144.22;1458950;88;22307;-78
2022/09/15 03:58:01;;;;;;;11.33;7.27;;;;;;;15.79;100.00;99142.66;1466971;89;22350;-78
2022/09/15 04:00:28;;;;;;;10.90;7.07;;;;;;;15.81;100.00;99141.13;1470712;88;21309;-78
2022/09/15 04:02:54;;;;;;;16.13;7.80;;;;;;;15.81;100.00;99139.27;1486967;87;21433;-79
2022/09/15 04:05:20;;;;;;;10.53;9.13;;;;;;;15.81;100.00;99142.45;1463415;87;21464;-79
2022/09/15 04:07:46;;;;;;;8.70;7.60;;;;;;;15.81;100.00;99145.13;1472349;88;21463;-79
2022/09/15 04:10:12;;;;;;;9.07;6.90;;;;;;;15.79;100.00;99150.66;1466154;88;22284;-78
2022/09/15 04:12:38;;;;;;;11.43;7.03;;;;;;;15.78;100.00;99159.18;1481198;87;21353;-78
2022/09/15 04:15:05;;;;;;;12.63;7.00;;;;;;;15.81;100.00;99166.47;1464440;88;21397;-76
2022/09/15 04:17:31;;;;;;;13.93;8.17;;;;;;;15.79;100.00;99155.50;1477351;88;21500;-79
2022/09/15 04:19:57;;;;;;;8.70;6.73;;;;;;;15.79;100.00;99152.83;1479959;88;21477;-78
2022/09/15 04:22:23;;;;;;;8.97;6.80;;;;;;;15.83;100.00;99157.22;1462482;87;21648;-79
2022/09/15 04:24:49;;;;;;;7.37;6.57;;;;;;;15.83;100.00;99146.55;1458810;88;21433;-79
2022/09/15 04:27:16;;;;;;;15.70;6.70;;;;;;;15.82;100.00;99142.75;1476866;88;22234;-79
2022/09/15 04:29:43;;;;;;;10.17;7.40;;;;;;;15.83;100.00;99133.73;1473903;87;21560;-79
2022/09/15 04:32:09;;;;;;;9.17;6.50;;;;;;;15.84;100.00;99139.36;1464921;88;21633;-80
2022/09/15 04:34:36;;;;;;;10.37;7.47;;;;;;;15.85;100.00;99135.66;1488265;88;21497;-80
2022/09/15 04:37:03;;;;;;;11.97;6.93;;;;;;;15.86;100.00;99139.98;1476700;88;22240;-79
2022/09/15 04:39:29;;;;;;;11.80;7.23;;;;;;;15.83;100.00;99145.73;1477787;88;21552;-78
2022/09/15 04:41:55;;;;;;;9.07;6.77;;;;;;;15.75;100.00;99150.27;1456272;89;21411;-79
2022/09/15 04:44:21;;;;;;;10.60;7.17;;;;;;;15.65;100.00;99153.89;1461492;88;21390;-79
2022/09/15 04:46:47;;;;;;;14.87;6.67;;;;;;;15.63;100.00;99159.94;1473690;87;21308;-78
2022/09/15 04:49:13;;;;;;;10.73;6.97;;;;;;;15.65;100.00;99161.89;1452674;87;22398;-78
2022/09/15 04:51:39;;;;;;;9.87;8.07;;;;;;;15.70;100.00;99161.27;1453584;88;21554;-79
2022/09/15 04:54:06;;;;;;;18.47;8.40;;;;;;;15.74;100.00;99161.98;1469561;88;21471;-79
2022/09/15 04:56:33;;;;;;;15.53;7.13;;;;;;;15.78;100.00;99163.19;1479885;88;21486;-80
2022/09/15 04:58:59;;;;;;;11.30;8.60;;;;;;;15.81;100.00;99162.47;1473426;88;21556;-80
2022/09/15 05:01:29;;;;;;;10.37;7.07;;;;;;;15.85;100.00;99163.14;1470023;87;21507;-76
2022/09/15 05:03:56;;;;;;;11.65;8.08;;;;;;;15.92;100.00;99160.46;1478560;88;21563;-79
2022/09/15 05:06:26;;;;;;;11.17;7.13;;;;;;;15.97;100.00;99157.98;1467967;88;21515;-78
2022/09/15 05:08:55;;;;;;;12.47;7.87;;;;;;;16.02;100.00;99163.47;1462190;88;21397;-78
2022/09/15 05:11:22;;;;;;;8.87;8.00;;;;;;;16.06;100.00;99167.37;1450204;89;21449;-77
2022/09/15 05:13:48;;;;;;;16.97;8.23;;;;;;;16.09;100.00;99168.27;1449987;88;21559;-77
2022/09/15 05:16:19;;;;;;;12.43;8.17;;;;;;;16.16;100.00;99154.87;1455920;88;21426;-77
2022/09/15 05:18:47;;;;;;;13.43;8.15;;;;;;;16.21;100.00;99146.53;1477331;87;21594;-79
2022/09/15 05:21:18;;;;;;;12.50;10.23;;;;;;;16.30;100.00;99160.44;1465194;84;21561;-79
2022/09/15 05:23:45;;;;;;;20.25;9.38;;;;;;;16.37;100.00;99168.39;1456707;88;21441;-79
2022/09/15 05:26:18;;;;;;;10.40;7.90;;;;;;;16.45;100.00;99169.47;1459246;88;22454;-79
2022/09/15 05:28:45;;;;;;;11.90;8.73;;;;;;;16.52;100.00;99168.92;1460963;88;21345;-78
2022/09/15 05:31:17;;;;;;;11.90;7.67;;;;;;;16.58;100.00;99169.91;1458514;89;21405;-82
2022/09/15 05:33:44;;;;;;;17.67;9.87;;;;;;;16.65;100.00;99176.00;1453481;89;21632;-84
2022/09/15 05:36:13;;;;;;;13.43;6.53;;;;;;;16.77;100.00;99173.47;1448020;88;21576;-82
2022/09/15 05:38:40;;;;;;;12.87;8.90;;;;;;;16.90;100.00;99166.69;1458063;89;22463;-85
2022/09/15 05:41:13;;;;;;;12.30;8.10;;;;;;;17.05;100.00;99157.80;1459401;88;21433;-84
2022/09/15 05:43:39;;;;;;;12.27;9.10;;;;;;;17.13;100.00;99153.51;1461547;88;21337;-84
2022/09/15 05:46:07;;;;;;;11.50;8.80;;;;;;;17.22;100.00;99151.36;1457018;88;21442;-83
2022/09/15 05:48:33;;;;;;;12.13;8.50;;;;;;;17.29;100.00;99150.78;1439250;89;21390;-88
2022/09/15 05:51:00;;;;;;;18.30;8.83;;;;;;;17.38;100.00;99159.33;1465346;88;21448;-87
2022/09/15 05:53:26;;;;;;;24.77;10.43;;;;;;;17.46;100.00;99165.70;1441886;88;21398;-89
2022/09/15 05:55:58;;;;;;;12.57;9.03;;;;;;;17.53;100.00;99154.41;1452349;88;21385;-87
2022/09/15 05:58:26;;;;;;;18.13;10.10;;;;;;;17.65;100.00;99159.02;1451929;89;21464;-89
2022/09/15 06:00:53;;;;;;;16.40;9.13;;;;;;;17.77;100.00;99161.22;1448934;89;22363;-89
2022/09/15 06:03:20;;;;;;;15.32;10.72;;;;;;;17.84;100.00;99157.15;1443486;89;21567;-88
2022/09/15 06:05:46;;;;;;;19.62;9.88;;;;;;;17.91;100.00;99151.20;1449457;89;21575;-87
2022/09/15 06:08:13;;;;;;;17.85;9.98;;;;;;;17.97;100.00;99173.86;1451975;89;21597;-87
2022/09/15 06:10:39;;;;;;;19.32;9.65;;;;;;;18.04;100.00;99175.12;1453934;89;22543;-90
2022/09/15 06:13:06;;;;;;;15.23;10.00;;;;;;;18.11;100.00;99174.50;1441357;89;21531;-89
2022/09/15 06:15:32;;;;;;;18.82;9.75;;;;;;;18.16;100.00;99179.19;1453739;89;21575;-89
2022/09/15 06:17:58;;;;;;;10.08;8.75;;;;;;;18.20;100.00;99189.20;1448338;89;22240;-84
2022/09/15 06:20:25;;;;;;;13.05;9.25;;;;;;;18.26;100.00;99203.55;1440471;89;21477;-88
2022/09/15 06:22:52;;;;;;;10.43;8.30;;;;;;;18.27;100.00;99209.21;1454272;89;21501;-89
2022/09/15 06:25:19;;;;;;;13.68;9.15;;;;;;;18.26;100.00;99225.78;1452734;89;21516;-90
2022/09/15 06:27:48;;;;;;;20.23;9.23;;;;;;;18.29;100.00;99215.66;1449305;90;22322;-90
2022/09/15 06:30:14;;;;;;;16.30;9.45;;;;;;;18.24;100.00;99211.82;1453097;90;21353;-90
2022/09/15 06:32:40;;;;;;;10.45;8.88;;;;;;;18.25;100.00;99230.04;1454717;89;21507;-92
2022/09/15 06:35:07;;;;;;;16.45;9.40;;;;;;;18.25;100.00;99232.72;1446063;89;21484;-90
2022/09/15 06:37:34;;;;;;;13.35;8.50;;;;;;;18.23;100.00;99234.80;1453488;89;21529;-90
2022/09/15 06:40:02;;;;;;;15.35;8.78;;;;;;;18.20;100.00;99227.22;1452735;90;21435;-89
2022/09/15 06:42:28;;;;;;;14.90;9.33;;;;;;;18.18;100.00;99226.62;1440818;89;21522;-82
2022/09/15 06:44:55;;;;;;;12.93;7.80;;;;;;;18.18;100.00;99230.63;1455590;89;21471;-81
2022/09/15 06:47:21;;;;;;;13.05;8.13;;;;;;;18.20;100.00;99239.27;1449492;90;21627;-81
2022/09/15 06:49:47;;;;;;;14.15;8.70;;;;;;;18.20;100.00;99248.11;1446469;89;21515;-80
2022/09/15 06:52:13;;;;;;;15.13;9.13;;;;;;;18.30;100.00;99244.91;1447491;89;21560;-81
2022/09/15 06:54:39;;;;;;;13.60;7.85;;;;;;;18.39;100.00;99226.66;1437254;89;21456;-81
2022/09/15 06:57:05;;;;;;;11.97;8.05;;;;;;;18.52;100.00;99226.98;1445865;88;21516;-79
2022/09/15 06:59:31;;;;;;;8.20;7.33;;;;;;;18.70;100.00;99233.59;1450020;90;21443;-84
2022/09/15 07:01:57;;;;;;;18.50;7.47;;;;;;;18.90;100.00;99226.13;1455819;90;22382;-85
2022/09/15 07:04:24;;;;;;;11.22;6.75;;;;;;;19.19;98.72;99220.05;1449957;90;21589;-87
2022/09/15 07:06:50;;;;;;;18.80;6.33;;;;;;;19.45;97.58;99228.16;1463301;88;22564;-79
2022/09/15 07:09:16;;;;;;;14.50;6.45;;;;;;;19.58;94.99;99237.31;1466549;88;21537;-80
2022/09/15 07:11:42;;;;;;;10.78;5.97;;;;;;;19.76;93.55;99244.42;1470999;88;21534;-81
2022/09/15 07:14:08;;;;;;;11.95;6.47;;;;;;;19.86;92.84;99247.34;1472471;88;22567;-79
2022/09/15 07:16:34;;;;;;;13.03;4.87;;;;;;;20.01;93.46;99246.30;1474952;88;21678;-81
2022/09/15 07:19:04;;;;;;;8.55;4.00;;;;;;;20.11;91.91;99240.84;1467513;88;21544;-82
2022/09/15 07:21:28;;;;;;;10.00;4.30;;;;;;;20.24;91.63;99247.28;1467010;88;21707;-82
2022/09/15 07:23:57;;;;;;;9.85;4.42;;;;;;;20.42;90.52;99254.33;1469678;88;21515;-81
2022/09/15 07:26:26;;;;;;;10.28;3.90;;;;;;;20.49;87.86;99259.86;1475215;88;22477;-84
2022/09/15 07:28:59;;;;;;;8.48;3.62;;;;;;;20.57;87.86;99264.57;1469463;88;21441;-85
2022/09/15 07:31:29;;;;;;;6.00;3.33;;;;;;;20.62;86.46;99274.89;1469806;88;21450;-82
2022/09/15 07:33:55;;;;;;;21.02;3.67;;;;;;;20.70;86.83;99277.72;1465228;88;21455;-84
2022/09/15 07:36:21;;;;;;;8.68;2.70;;;;;;;20.73;85.00;99279.92;1466397;88;21425;-86
2022/09/15 07:38:49;;;;;;;8.23;3.10;;;;;;;20.82;85.66;99279.81;1467654;88;21441;-88
2022/09/15 07:41:26;;;;;;;8.98;3.35;;;;;;;20.82;85.66;99279.81;1467327;88;22468;-87
2022/09/15 07:43:55;;;;;;;13.83;3.40;;;;;;;20.90;84.69;99288.02;1467558;88;22521;-86
2022/09/15 07:46:24;;;;;;;14.17;3.50;;;;;;;20.99;85.17;99298.66;1471295;88;22388;-84
2022/09/15 07:48:57;;;;;;;11.18;3.22;;;;;;;21.06;83.29;99289.92;1475253;88;21529;-85
2022/09/15 07:51:22;;;;;;;9.03;3.33;;;;;;;21.09;82.98;99298.00;1470355;88;21588;-86
2022/09/15 07:53:50;;;;;;;11.50;4.12;;;;;;;21.14;83.68;99296.22;1475890;88;21530;-87
2022/09/15 07:56:19;;;;;;;11.03;3.05;;;;;;;21.22;82.62;99300.38;1460757;88;21530;-85
2022/09/15 07:58:46;;;;;;;3.70;2.25;;;;;;;21.36;80.86;99304.91;1478644;88;21528;-86
2022/09/15 08:01:14;;;;;;;14.93;4.08;;;;;;;21.52;81.00;99312.20;1474981;88;21529;-87
2022/09/15 08:03:43;;;;;;;8.88;2.62;;;;;;;21.66;80.50;99313.19;1475131;88;22513;-86
2022/09/15 08:06:10;;;;;;;6.17;2.77;;;;;;;21.65;78.89;99320.98;1460555;88;21456;-87
2022/09/15 08:08:38;;;;;;;14.63;3.52;;;;;;;21.63;79.52;99331.45;1470800;88;21552;-87
2022/09/15 08:11:10;;;;;;;9.43;2.55;;;;;;;21.68;79.40;99327.22;1469581;88;21411;-87
2022/09/15 08:13:37;;;;;;;8.18;2.90;;;;;;;21.68;79.64;99336.65;1469468;88;21662;-86
2022/09/15 08:16:14;;;;;;;6.03;2.10;;;;;;;21.65;78.50;99338.48;1470597;88;22233;-88
2022/09/15 08:18:43;;;;;;;6.40;2.83;;;;;;;21.63;78.69;99322.56;1463769;88;21639;-88
2022/09/15 08:21:18;;;;;;;7.33;2.67;;;;;;;21.55;78.35;99325.17;1471383;88;21494;-86
2022/09/15 08:23:47;;;;;;;7.40;2.65;;;;;;;21.49;78.17;99328.84;1473839;88;21532;-84
2022/09/15 08:26:13;;;;;;;8.05;2.83;;;;;;;21.49;78.95;99328.01;1459442;88;21758;-85
2022/09/15 08:28:39;;;;;;;9.70;2.87;;;;;;;21.53;78.43;99321.09;1449275;88;21456;-87
2022/09/15 08:31:08;;;;;;;4.95;2.85;;;;;;;21.68;78.96;99311.07;1471920;88;21442;-87
2022/09/15 08:33:35;;;;;;;9.70;2.47;;;;;;;21.77;79.12;99311.73;1468037;88;21412;-86
2022/09/15 08:36:12;;;;;;;12.88;3.30;;;;;;;21.88;78.81;99321.31;1470864;88;21442;-87
2022/09/15 08:38:39;;;;;;;5.67;3.00;;;;;;;22.01;77.50;99335.24;1460585;88;22413;-87
2022/09/15 08:41:14;;;;;;;8.63;2.42;;;;;;;21.97;76.90;99324.66;1472465;88;21699;-85
2022/09/15 08:43:48;;;;;;;12.18;2.50;;;;;;;21.89;76.46;99329.13;1469572;88;21596;-86
2022/09/15 08:46:19;;;;;;;4.83;2.62;;;;;;;21.74;76.49;99318.16;1462991;88;21615;-87
2022/09/15 08:48:51;;;;;;;9.90;3.15;;;;;;;21.62;77.42;99313.69;1462663;88;21567;-85
2022/09/15 08:51:37;;;;;;;6.97;2.37;;;;;;;21.67;77.66;99320.22;1465022;88;21619;-86
2022/09/15 08:54:09;;;;;;;5.67;2.40;;;;;;;21.81;78.18;99321.50;1467628;88;22453;-86
2022/09/15 08:56:36;;;;;;;8.38;2.77;;;;;;;22.00;76.70;99334.12;1472712;88;21397;-85
2022/09/15 08:59:03;;;;;;;10.15;2.90;;;;;;;22.23;76.32;99315.59;1472485;88;21464;-85
2022/09/15 09:01:40;;;;;;;4.45;2.20;;;;;;;22.44;75.18;99325.56;1474610;88;22299;-85
2022/09/15 09:04:39;;;;;;;5.97;2.25;;;;;;;22.72;74.27;99319.11;1465443;88;21648;-86
2022/09/15 09:07:34;;;;;;;6.55;1.98;;;;;;;23.06;74.06;99311.38;1473916;88;21456;-86
2022/09/15 09:10:26;;;;;;;6.12;1.75;;;;;;;23.36;72.04;99295.94;1474377;88;22271;-88
2022/09/15 09:13:20;;;;;;;7.28;1.95;;;;;;;23.60;69.17;99295.05;1470283;88;21614;-85
2022/09/15 09:16:15;;;;;;;6.97;2.00;;;;;;;23.89;68.03;99308.20;1471344;88;22484;-86
2022/09/15 09:19:37;;;;;;;5.10;1.55;;;;;;;24.04;66.61;99306.92;1415421;92;22403;-88
2022/09/15 09:22:11;;;;;;;10.20;2.12;;;;;;;24.30;67.18;99322.16;1483389;88;21521;-86
2022/09/15 09:24:48;;;;;;;5.53;1.98;;;;;;;24.24;64.24;99319.72;1479835;87;21559;-88
2022/09/15 09:27:18;;;;;;;4.37;1.55;;;;;;;24.09;65.53;99308.30;1475282;87;22145;-87
2022/09/15 09:29:50;;;;;;;6.47;2.22;;;;;;;23.99;66.32;99309.59;1486570;88;22461;-87
2022/09/15 09:32:24;;;;;;;5.80;1.95;;;;;;;23.83;66.05;99301.42;1484456;88;21425;-88
2022/09/15 09:35:13;;;;;;;6.08;1.52;;;;;;;23.89;66.58;99319.82;1486309;88;21646;-87
2022/09/15 09:37:40;;;;;;;6.05;2.05;;;;;;;23.84;65.47;99311.14;1477062;87;21470;-89
2022/09/15 09:40:14;;;;;;;10.35;1.72;;;;;;;23.95;65.68;99306.61;1487556;87;21433;-90
2022/09/15 09:42:41;;;;;;;4.47;2.05;;;;;;;24.17;66.30;99308.31;1466969;88;21470;-89
2022/09/15 09:45:14;;;;;;;3.40;1.95;;;;;;;24.41;66.18;99305.98;1469842;88;21618;-87
2022/09/15 09:47:41;;;;;;;5.67;2.00;;;;;;;24.47;64.16;99307.66;1475994;88;22441;-89
2022/09/15 09:50:33;;;;;;;8.93;1.72;;;;;;;24.46;63.64;99312.80;1473093;88;22470;-88
2022/09/15 09:53:00;;;;;;;4.85;1.42;;;;;;;24.41;63.63;99300.58;1464671;88;21603;-88
2022/09/15 09:55:27;;;;;;;7.25;1.60;;;;;;;24.36;64.34;99305.42;1469505;88;21641;-89
2022/09/15 09:57:58;;;;;;;5.40;1.35;;;;;;;24.33;64.75;99288.38;1474008;88;22455;-88
2022/09/15 10:00:35;;;;;;;5.40;1.80;;;;;;;24.23;64.30;99271.59;1468710;88;22431;-89
2022/09/15 10:03:24;;;;;;;11.50;2.00;;;;;;;24.24;64.95;99274.56;1468709;88;21478;-89
2022/09/15 10:06:21;;;;;;;8.25;1.72;;;;;;;24.46;64.96;99265.48;1468431;88;22374;-86
2022/09/15 10:09:03;;;;;;;5.65;1.60;;;;;;;24.76;64.64;99270.11;1471869;88;21610;-88
2022/09/15 10:11:55;;;;;;;6.92;1.80;;;;;;;24.93;62.73;99267.15;1469957;88;21449;-86
2022/09/15 10:14:29;;;;;;;6.70;1.55;;;;;;;25.00;62.23;99259.56;1475758;88;21418;-86
2022/09/15 10:17:07;;;;;;;8.18;1.47;;;;;;;25.08;62.16;99252.80;1469164;88;22423;-87
2022/09/15 10:19:53;;;;;;;5.08;2.27;;;;;;;25.20;60.54;99239.30;1462344;88;21492;-87
2022/09/15 10:22:31;;;;;;;5.47;1.70;;;;;;;25.30;60.83;99251.20;1463184;88;21599;-86
2022/09/15 10:24:59;;;;;;;3.02;1.52;;;;;;;25.42;60.40;99261.19;1474554;88;21523;-88
2022/09/15 10:27:30;;;;;;;8.40;1.90;;;;;;;25.48;58.59;99258.73;1468803;88;21448;-86
2022/09/15 10:30:19;;;;;;;3.80;1.55;;;;;;;25.43;59.25;99264.99;1463589;88;21493;-88
2022/09/15 10:32:45;;;;;;;5.80;1.85;;;;;;;25.38;58.81;99253.36;1465353;88;22472;-87
2022/09/15 10:35:17;;;;;;;3.70;1.67;;;;;;;25.37;58.25;99250.36;1468674;88;21589;-88
2022/09/15 10:38:10;;;;;;;4.03;1.60;;;;;;;25.36;59.13;99240.08;1478537;88;21515;-88
2022/09/15 10:40:56;;;;;;;4.80;1.52;;;;;;;25.36;58.22;99244.69;1469948;88;21507;-89
2022/09/15 10:43:54;;;;;;;5.97;1.55;;;;;;;25.44;59.80;99242.23;1454197;88;21597;-86
2022/09/15 10:46:48;;;;;;;4.83;2.30;;;;;;;25.50;58.26;99245.73;1470142;88;21500;-90
2022/09/15 10:49:23;;;;;;;3.33;1.47;;;;;;;25.65;58.62;99245.69;1473499;88;22403;-86
2022/09/15 10:52:10;;;;;;;4.47;1.70;;;;;;;25.75;57.48;99248.09;1467344;88;21524;-88
2022/09/15 10:55:21;;;;;;;3.00;1.52;;;;;;;25.87;56.42;99255.42;1474460;88;21448;-87
2022/09/15 10:57:56;;;;;;;6.83;1.30;;;;;;;25.91;56.74;99252.95;1473318;88;21618;-86
2022/09/15 11:00:26;;;;;;;8.43;1.80;;;;;;;25.88;55.74;99254.32;1469331;88;21478;-87
2022/09/15 11:03:06;;;;;;;4.62;1.70;;;;;;;25.82;56.88;99258.11;1469619;88;21463;-88
2022/09/15 11:05:51;;;;;;;5.55;1.20;;;;;;;25.78;56.95;99251.08;1456860;88;21565;-87
2022/09/15 11:08:47;;;;;;;6.05;1.57;;;;;;;25.81;56.96;99254.59;1465390;88;21536;-87
2022/09/15 11:11:33;;;;;;;4.55;1.37;;;;;;;25.80;57.16;99252.14;1475182;88;21500;-86
2022/09/15 11:14:22;;;;;;;3.47;1.85;;;;;;;25.92;57.72;99255.38;1473325;88;21589;-86
2022/09/15 11:17:18;;;;;;;4.12;1.40;;;;;;;26.01;57.19;99251.02;1468292;88;22210;-87
2022/09/15 11:19:55;;;;;;;3.95;1.42;;;;;;;25.97;56.60;99244.52;1465469;88;21398;-88
2022/09/15 11:22:29;;;;;;;3.77;1.55;;;;;;;25.82;55.81;99241.84;1473767;88;21479;-87
2022/09/15 11:25:03;;;;;;;6.15;1.40;;;;;;;25.86;57.05;99247.00;1464996;88;21552;-85
2022/09/15 11:27:55;;;;;;;5.80;1.30;;;;;;;25.90;55.98;99238.60;1470204;88;21492;-87
2022/09/15 11:30:24;;;;;;;3.70;1.60;;;;;;;25.93;56.16;99236.69;1471164;88;21640;-89
2022/09/15 11:33:08;;;;;;;8.20;1.27;;;;;;;26.07;55.85;99227.41;1468539;88;21596;-84
2022/09/15 11:35:51;;;;;;;3.40;1.27;;;;;;;26.16;55.24;99233.06;1469900;88;21508;-88
2022/09/15 11:38:46;;;;;;;3.42;1.05;;;;;;;26.22;54.42;99222.45;1475915;88;21618;-87
2022/09/15 11:41:31;;;;;;;2.72;1.37;;;;;;;26.32;53.61;99221.02;1469217;88;21626;-86
2022/09/15 11:44:28;;;;;;;6.33;1.92;;;;;;;26.33;52.33;99216.69;1470395;88;21455;-87
2022/09/15 11:47:09;;;;;;;6.03;1.72;;;;;;;26.34;52.78;99208.80;1454455;88;21404;-87
2022/09/15 11:49:59;;;;;;;4.83;1.90;;;;;;;26.49;52.35;99202.45;1467550;88;22342;-89